createdAt,value
2022-09-15T00:00:48.039Z,5.80
2022-09-15T00:02:51.026Z,5.65
2022-09-15T00:04:53.876Z,5.97
2022-09-15T00:06:56.531Z,6.47
2022-09-15T00:08:59.378Z,4.93
2022-09-15T00:11:07.180Z,5.80
2022-09-15T00:13:09.784Z,4.32
2022-09-15T00:15:14.595Z,4.85
2022-09-15T00:17:17.179Z,5.90
2022-09-15T00:19:19.752Z,5.65
2022-09-15T00:21:24.096Z,5.45
2022-09-15T00:23:26.712Z,5.05
2022-09-15T00:25:29.292Z,4.75
2022-09-15T00:27:33.665Z,5.25
2022-09-15T00:29:37.069Z,3.60
2022-09-15T00:31:39.652Z,5.30
2022-09-15T00:33:42.272Z,5.70
2022-09-15T00:35:47.394Z,3.88
2022-09-15T00:37:49.944Z,5.22
2022-09-15T00:39:54.146Z,4.25
2022-09-15T00:41:56.898Z,4.25
2022-09-15T00:44:03.395Z,4.00
2022-09-15T00:48:12.972Z,3.83
2022-09-15T00:50:19.080Z,4.93
2022-09-15T00:52:27.444Z,5.10
2022-09-15T00:54:33.919Z,4.32
2022-09-15T00:58:44.363Z,4.78
2022-09-15T01:00:52.498Z,4.43
2022-09-15T01:02:56.158Z,5.03
2022-09-15T01:04:59.800Z,3.83
2022-09-15T01:07:06.071Z,6.63
2022-09-15T01:09:15.462Z,6.70
2022-09-15T01:11:18.484Z,5.40
2022-09-15T01:13:21.132Z,5.70
2022-09-15T01:15:27.636Z,4.40
2022-09-15T01:17:40.235Z,7.30
2022-09-15T01:20:09.796Z,4.38
2022-09-15T01:22:25.132Z,4.35
2022-09-15T01:24:45.327Z,5.82
2022-09-15T01:27:13.665Z,3.90
2022-09-15T01:29:47.884Z,4.40
2022-09-15T01:32:16.455Z,4.15
2022-09-15T01:34:21.846Z,4.28
2022-09-15T01:36:33.630Z,5.30
2022-09-15T01:38:47.069Z,4.28
2022-09-15T01:40:55.362Z,4.05
2022-09-15T01:42:59.875Z,5.10
2022-09-15T01:45:09.045Z,5.07
2022-09-15T01:47:14.870Z,4.03
2022-09-15T01:49:21.069Z,4.93
2022-09-15T01:51:26.689Z,4.75
2022-09-15T01:53:29.864Z,5.35
2022-09-15T01:55:40.267Z,4.00
2022-09-15T01:57:43.100Z,4.63
2022-09-15T01:59:45.724Z,5.00
2022-09-15T02:01:57.277Z,4.43
2022-09-15T02:04:05.135Z,4.63
2022-09-15T02:06:14.554Z,4.28
2022-09-15T02:08:25.432Z,4.15
2022-09-15T02:10:35.554Z,3.75
2022-09-15T02:12:47.695Z,4.85
2022-09-15T02:14:57.867Z,3.72
2022-09-15T02:17:02.911Z,3.95
2022-09-15T02:19:15.876Z,5.00
2022-09-15T02:21:23.285Z,5.53
2022-09-15T02:23:29.281Z,4.80
2022-09-15T02:25:34.803Z,6.10
2022-09-15T02:27:44.140Z,3.90
2022-09-15T02:29:48.766Z,3.50
2022-09-15T02:31:54.281Z,3.40
2022-09-15T02:34:02.751Z,4.00
2022-09-15T02:36:05.952Z,5.22
2022-09-15T02:38:10.626Z,4.18
2022-09-15T02:40:13.459Z,6.03
2022-09-15T02:42:25.160Z,3.88
2022-09-15T02:44:27.884Z,4.35
2022-09-15T02:46:31.043Z,6.43
2022-09-15T02:48:33.594Z,4.85
2022-09-15T02:50:37.925Z,3.58
2022-09-15T02:52:40.479Z,4.53
2022-09-15T02:54:43.204Z,3.75
2022-09-15T02:56:46.314Z,4.32
2022-09-15T02:58:49.182Z,5.82
2022-09-15T03:00:54.152Z,3.33
2022-09-15T03:02:56.979Z,3.95
2022-09-15T03:04:59.534Z,3.88
2022-09-15T03:07:08.870Z,3.80
2022-09-15T03:09:11.475Z,4.35
2022-09-15T03:11:14.429Z,3.40
2022-09-15T03:13:18.352Z,3.40
2022-09-15T03:15:23.198Z,4.80
2022-09-15T03:17:25.742Z,5.05
2022-09-15T03:19:28.402Z,4.43
2022-09-15T03:21:31.599Z,5.53
2022-09-15T03:23:36.032Z,5.45
2022-09-15T03:25:38.608Z,4.68
2022-09-15T03:27:41.257Z,4.93
2022-09-15T03:29:44.030Z,5.25
2022-09-15T03:31:46.646Z,4.10
2022-09-15T03:33:49.314Z,4.50
2022-09-15T03:35:52.828Z,5.93
2022-09-15T03:37:55.738Z,5.32
2022-09-15T03:39:59.732Z,3.97
2022-09-15T03:42:02.344Z,5.45
2022-09-15T03:44:05.148Z,4.13
2022-09-15T03:46:09.073Z,5.40
2022-09-15T03:48:11.719Z,4.03
2022-09-15T03:50:14.380Z,3.38
2022-09-15T03:52:16.933Z,4.13
2022-09-15T03:54:20.333Z,3.83
2022-09-15T03:56:27.226Z,5.28
2022-09-15T03:58:30.906Z,3.63
2022-09-15T04:00:34.117Z,4.43
2022-09-15T04:02:36.694Z,3.25
2022-09-15T04:04:39.286Z,5.80
2022-09-15T04:06:42.247Z,3.55
2022-09-15T04:08:44.850Z,4.50
2022-09-15T04:10:48.129Z,4.15
2022-09-15T04:12:52.266Z,4.32
2022-09-15T04:14:55.275Z,4.20
2022-09-15T04:16:57.869Z,3.95
2022-09-15T04:19:00.802Z,3.35
2022-09-15T04:21:05.546Z,3.35
2022-09-15T04:23:08.175Z,4.05
2022-09-15T04:25:11.071Z,3.28
2022-09-15T04:27:13.612Z,4.13
2022-09-15T04:29:17.559Z,4.78
2022-09-15T04:31:20.761Z,3.53
2022-09-15T04:33:23.395Z,3.85
2022-09-15T04:35:26.055Z,4.88
2022-09-15T04:37:28.611Z,5.82
2022-09-15T04:39:31.333Z,4.78
2022-09-15T04:41:34.689Z,3.40
2022-09-15T04:43:37.515Z,3.10
2022-09-15T04:45:41.437Z,4.85
2022-09-15T04:47:43.990Z,5.00
2022-09-15T04:49:46.724Z,4.82
2022-09-15T04:51:49.313Z,3.70
2022-09-15T04:53:52.657Z,3.05
2022-09-15T04:56:01.899Z,5.35
2022-09-15T04:58:05.123Z,4.15
2022-09-15T05:00:09.122Z,3.88
2022-09-15T05:02:13.129Z,3.40
2022-09-15T05:04:15.785Z,3.67
2022-09-15T05:06:21.896Z,3.17
2022-09-15T05:08:24.531Z,4.95
2022-09-15T05:10:27.156Z,5.10
2022-09-15T05:12:29.705Z,2.60
2022-09-15T05:14:32.481Z,3.63
2022-09-15T05:16:35.170Z,4.22
2022-09-15T05:18:39.267Z,3.75
2022-09-15T05:20:42.154Z,3.80
2022-09-15T05:22:44.996Z,3.50
2022-09-15T05:24:47.653Z,4.75
2022-09-15T05:26:50.719Z,3.15
2022-09-15T05:28:54.080Z,5.05
2022-09-15T05:30:57.264Z,4.63
2022-09-15T05:32:59.941Z,3.83
2022-09-15T05:35:05.277Z,3.50
2022-09-15T05:37:07.884Z,4.75
2022-09-15T05:39:10.476Z,3.80
2022-09-15T05:41:17.490Z,4.15
2022-09-15T05:43:20.204Z,4.68
2022-09-15T05:45:22.768Z,3.33
2022-09-15T05:47:25.467Z,3.53
2022-09-15T05:49:29.408Z,5.00
2022-09-15T05:51:33.326Z,3.85
2022-09-15T05:53:36.700Z,3.55
2022-09-15T05:55:39.305Z,4.40
2022-09-15T05:57:41.898Z,4.45
2022-09-15T05:59:44.472Z,3.55
2022-09-15T06:01:47.128Z,3.72
2022-09-15T06:03:49.785Z,4.07
2022-09-15T06:06:00.211Z,2.97
2022-09-15T06:08:04.249Z,3.45
2022-09-15T06:10:09.190Z,3.40
2022-09-15T06:12:11.763Z,2.25
2022-09-15T06:14:14.500Z,3.30
2022-09-15T06:16:19.370Z,3.10
2022-09-15T06:18:22.027Z,3.28
2022-09-15T06:20:25.394Z,3.10
2022-09-15T06:22:29.154Z,3.63
2022-09-15T06:24:33.077Z,3.47
2022-09-15T06:26:35.781Z,2.88
2022-09-15T06:28:39.308Z,2.63
2022-09-15T06:30:42.114Z,4.25
2022-09-15T06:32:48.039Z,3.08
2022-09-15T06:34:50.988Z,3.45
2022-09-15T06:36:53.625Z,5.65
2022-09-15T06:38:57.247Z,2.70
2022-09-15T06:41:01.197Z,3.05
2022-09-15T06:43:03.844Z,3.90
2022-09-15T06:45:07.014Z,2.53
2022-09-15T06:47:10.531Z,3.65
2022-09-15T06:49:13.140Z,3.65
2022-09-15T06:51:17.185Z,4.13
2022-09-15T06:53:20.084Z,2.78
2022-09-15T06:55:22.713Z,3.10
2022-09-15T06:57:26.669Z,3.10
2022-09-15T06:59:29.290Z,3.13
2022-09-15T07:01:33.209Z,4.00
2022-09-15T07:03:35.919Z,5.60
2022-09-15T07:05:38.698Z,3.20
2022-09-15T07:07:41.332Z,4.15
2022-09-15T07:09:48.369Z,3.67
2022-09-15T07:11:51.587Z,4.05
2022-09-15T07:13:55.787Z,3.30
2022-09-15T07:16:00.528Z,2.70
2022-09-15T07:18:03.184Z,3.53
2022-09-15T07:20:06.599Z,2.92
2022-09-15T07:22:11.899Z,3.53
2022-09-15T07:24:14.678Z,4.68
2022-09-15T07:26:19.093Z,3.35
2022-09-15T07:28:21.694Z,4.55
2022-09-15T07:30:25.647Z,3.30
2022-09-15T07:32:28.284Z,2.92
2022-09-15T07:34:31.033Z,3.55
2022-09-15T07:36:33.803Z,2.80
2022-09-15T07:38:40.039Z,3.40
2022-09-15T07:40:42.646Z,3.45
2022-09-15T07:42:45.585Z,4.28
2022-09-15T07:44:48.164Z,3.67
2022-09-15T07:46:52.102Z,4.07
2022-09-15T07:48:56.222Z,4.07
2022-09-15T07:50:59.825Z,4.32
2022-09-15T07:53:02.537Z,4.95
2022-09-15T07:55:05.733Z,4.43
2022-09-15T07:57:08.402Z,4.10
2022-09-15T07:59:10.970Z,4.05
2022-09-15T08:01:15.529Z,4.70
2022-09-15T08:03:19.628Z,4.65
2022-09-15T08:05:23.557Z,6.18
2022-09-15T08:07:26.226Z,3.20
2022-09-15T08:09:28.811Z,4.32
2022-09-15T08:11:31.536Z,3.88
2022-09-15T08:13:34.154Z,4.63
2022-09-15T08:15:38.655Z,4.65
2022-09-15T08:17:41.290Z,3.80
2022-09-15T08:19:45.795Z,5.00
2022-09-15T08:21:48.410Z,4.32
2022-09-15T08:23:52.708Z,3.88
2022-09-15T08:25:55.330Z,4.43
2022-09-15T08:27:59.487Z,5.30
2022-09-15T08:30:02.208Z,4.47
2022-09-15T08:32:05.131Z,3.72
2022-09-15T08:34:07.998Z,4.10
2022-09-15T08:36:12.047Z,3.50
2022-09-15T08:38:14.621Z,3.45
2022-09-15T08:40:21.079Z,3.90
2022-09-15T08:44:37.425Z,4.25
2022-09-15T08:46:43.841Z,3.90
2022-09-15T08:50:57.120Z,3.90
2022-09-15T08:53:06.674Z,5.28
2022-09-15T08:55:16.581Z,3.47
2022-09-15T08:57:23.817Z,4.88
2022-09-15T08:59:36.641Z,3.40
2022-09-15T09:02:15.356Z,4.60
2022-09-15T09:04:38.173Z,3.83
2022-09-15T09:06:48.084Z,4.10
2022-09-15T09:09:16.885Z,3.80
2022-09-15T09:11:27.280Z,5.43
2022-09-15T09:13:38.184Z,4.10
2022-09-15T09:15:56.503Z,3.63
2022-09-15T09:18:29.355Z,4.10
2022-09-15T09:20:45.354Z,4.90
2022-09-15T09:22:51.624Z,5.03
2022-09-15T09:24:59.236Z,3.53
2022-09-15T09:27:01.859Z,3.50
2022-09-15T09:29:12.893Z,7.40
2022-09-15T09:31:20.433Z,4.35
2022-09-15T09:33:30.298Z,4.18
2022-09-15T09:35:37.577Z,3.22
2022-09-15T09:37:40.592Z,3.05
2022-09-15T09:39:43.463Z,2.90
2022-09-15T09:41:47.523Z,3.88
2022-09-15T09:43:50.724Z,3.28
2022-09-15T09:45:53.385Z,3.95
2022-09-15T09:48:01.714Z,3.00
2022-09-15T09:50:04.903Z,4.13
2022-09-15T09:52:07.558Z,4.38
2022-09-15T09:54:16.126Z,2.95
2022-09-15T09:56:24.464Z,3.90
2022-09-15T09:58:28.445Z,3.60
2022-09-15T10:00:33.550Z,3.22
2022-09-15T10:02:47.888Z,3.22
2022-09-15T10:04:52.969Z,3.33
2022-09-15T10:06:57.072Z,3.25
2022-09-15T10:09:04.334Z,2.90
2022-09-15T10:11:10.175Z,5.05
2022-09-15T10:13:13.500Z,5.10
2022-09-15T10:15:25.345Z,3.40
2022-09-15T10:17:39.065Z,3.70
2022-09-15T10:19:47.137Z,5.10
2022-09-15T10:21:49.793Z,1.42
2022-09-15T10:23:52.852Z,2.20
2022-09-15T10:26:00.487Z,2.38
2022-09-15T10:28:12.876Z,2.95
2022-09-15T10:30:19.680Z,1.67
2022-09-15T10:32:38.815Z,2.25
2022-09-15T10:34:41.756Z,0.95
2022-09-15T10:36:45.027Z,1.55
2022-09-15T10:38:50.389Z,0.85
2022-09-15T10:41:01.573Z,1.17
2022-09-15T10:43:21.227Z,2.13
2022-09-15T10:45:27.822Z,0.82
2022-09-15T10:47:43.239Z,1.85
2022-09-15T10:50:00.925Z,1.20
2022-09-15T10:52:14.758Z,2.28
2022-09-15T10:54:39.160Z,1.48
2022-09-15T10:56:44.133Z,3.30
2022-09-15T10:59:03.818Z,3.38
2022-09-15T11:01:22.075Z,2.70
2022-09-15T11:05:56.698Z,4.00
2022-09-15T11:08:18.193Z,4.03
2022-09-15T11:10:26.513Z,4.65
2022-09-15T11:12:41.397Z,4.30
2022-09-15T11:14:54.900Z,6.45
2022-09-15T11:17:12.299Z,5.68
2022-09-15T11:19:32.102Z,5.90
2022-09-15T11:21:38.932Z,6.75
2022-09-15T11:23:47.087Z,4.47
2022-09-15T11:25:56.903Z,5.90
2022-09-15T11:28:05.345Z,5.88
2022-09-15T11:30:17.113Z,5.38
2022-09-15T11:32:25.399Z,7.30
2022-09-15T11:34:34.678Z,5.93
2022-09-15T11:36:41.596Z,7.07
2022-09-15T11:38:49.567Z,6.68
2022-09-15T11:40:58.817Z,5.35
2022-09-15T11:43:07.143Z,7.05
2022-09-15T11:45:16.951Z,6.50
2022-09-15T11:47:29.409Z,6.18
2022-09-15T11:51:46.009Z,6.05
2022-09-15T11:53:53.982Z,7.40
2022-09-15T11:56:06.787Z,6.95
2022-09-15T11:58:22.037Z,7.25
2022-09-15T12:00:25.483Z,6.82
2022-09-15T12:02:33.993Z,10.07
2022-09-15T12:04:43.964Z,7.95
2022-09-15T12:06:52.256Z,7.78
2022-09-15T12:09:00.792Z,5.22
2022-09-15T12:11:08.995Z,7.10
2022-09-15T12:13:17.843Z,7.00
2022-09-15T12:15:27.138Z,7.78
2022-09-15T12:17:36.503Z,7.50
2022-09-15T12:19:49.729Z,7.88
2022-09-15T12:21:56.943Z,8.85
2022-09-15T12:24:08.150Z,8.93
2022-09-15T12:26:17.875Z,7.65
2022-09-15T12:28:28.572Z,6.28
2022-09-15T12:30:42.047Z,8.27
2022-09-15T12:32:44.845Z,8.38
2022-09-15T12:35:13.341Z,7.53
2022-09-15T12:37:16.811Z,6.22
2022-09-15T12:39:41.712Z,8.52
2022-09-15T12:41:48.696Z,6.35
2022-09-15T12:43:54.376Z,9.27
2022-09-15T12:45:59.468Z,7.70
2022-09-15T12:48:05.645Z,9.20
2022-09-15T12:50:24.666Z,6.38
2022-09-15T12:52:27.577Z,7.93
2022-09-15T12:54:34.053Z,6.70
2022-09-15T12:58:42.500Z,7.40
2022-09-15T13:01:14.004Z,8.43
2022-09-15T13:03:28.280Z,8.65
2022-09-15T13:06:06.744Z,8.82
2022-09-15T13:08:15.129Z,8.20
2022-09-15T13:10:29.486Z,7.30
2022-09-15T13:12:38.008Z,7.18
2022-09-15T13:14:44.825Z,7.63
2022-09-15T13:16:54.055Z,7.97
2022-09-15T13:19:08.586Z,8.65
2022-09-15T13:21:16.783Z,8.57
2022-09-15T13:23:24.950Z,6.90
2022-09-15T13:25:30.144Z,7.20
2022-09-15T13:27:36.954Z,7.28
2022-09-15T13:29:58.805Z,6.53
2022-09-15T13:32:11.019Z,5.47
2022-09-15T13:35:04.477Z,8.50
2022-09-15T13:40:52.634Z,5.30
2022-09-15T13:43:18.017Z,5.57
2022-09-15T13:45:37.163Z,7.80
2022-09-15T13:47:55.153Z,5.95
2022-09-15T13:50:12.280Z,8.10
2022-09-15T13:52:27.957Z,7.28
2022-09-15T13:54:30.594Z,6.20
2022-09-15T13:56:37.451Z,6.45
2022-09-15T13:59:12.261Z,7.47
2022-09-15T14:01:07.949Z,6.93
2022-09-15T14:03:15.365Z,6.07
2022-09-15T14:05:20.108Z,8.40
2022-09-15T14:07:25.548Z,6.93
2022-09-15T14:09:33.094Z,6.95
2022-09-15T14:11:38.598Z,5.82
2022-09-15T14:13:47.576Z,5.65
2022-09-15T14:16:01.791Z,6.25
2022-09-15T14:18:04.670Z,7.68
2022-09-15T14:20:24.069Z,4.55
2022-09-15T14:22:29.355Z,6.90
2022-09-15T14:24:32.945Z,5.13
2022-09-15T14:26:36.928Z,6.70
2022-09-15T14:28:39.582Z,7.47
2022-09-15T14:30:48.843Z,6.68
2022-09-15T14:32:55.477Z,5.47
2022-09-15T14:35:05.477Z,4.70
2022-09-15T14:37:14.782Z,4.93
2022-09-15T14:39:20.460Z,5.88
2022-09-15T14:41:23.073Z,5.68
2022-09-15T14:43:27.230Z,6.30
2022-09-15T14:46:02.262Z,5.45
2022-09-15T14:48:07.282Z,5.45
2022-09-15T14:50:15.221Z,8.32
2022-09-15T14:52:27.186Z,5.72
2022-09-15T14:54:35.177Z,5.68
2022-09-15T14:56:41.885Z,6.15
2022-09-15T14:58:48.011Z,5.18
2022-09-15T15:00:58.012Z,4.90
2022-09-15T15:03:18.985Z,5.97
2022-09-15T15:05:27.437Z,6.97
2022-09-15T15:07:33.144Z,6.47
2022-09-15T15:09:43.103Z,6.50
2022-09-15T15:11:46.371Z,6.60
2022-09-15T15:13:52.750Z,6.10
2022-09-15T15:15:56.705Z,6.13
2022-09-15T15:17:59.549Z,6.13
2022-09-15T15:20:15.529Z,7.38
2022-09-15T15:22:21.870Z,6.78
2022-09-15T15:24:25.022Z,6.45
2022-09-15T15:26:36.603Z,7.72
2022-09-15T15:28:39.688Z,8.50
2022-09-15T15:30:47.490Z,7.60
2022-09-15T15:32:50.112Z,5.10
2022-09-15T15:34:55.767Z,5.18
2022-09-15T15:37:05.164Z,6.13
2022-09-15T15:39:20.211Z,4.90
2022-09-15T15:41:24.991Z,5.65
2022-09-15T15:43:28.845Z,6.47
2022-09-15T15:45:32.464Z,5.80
2022-09-15T15:47:37.860Z,4.88
2022-09-15T15:50:02.202Z,6.93
2022-09-15T15:52:05.776Z,5.18
2022-09-15T15:54:08.501Z,6.45
2022-09-15T15:56:11.224Z,8.48
2022-09-15T15:58:15.270Z,6.60
2022-09-15T16:00:22.308Z,4.68
2022-09-15T16:02:26.754Z,5.82
2022-09-15T16:04:30.029Z,5.20
2022-09-15T16:06:33.680Z,5.22
2022-09-15T16:08:40.650Z,5.57
2022-09-15T16:10:47.547Z,5.20
2022-09-15T16:12:50.436Z,8.00
2022-09-15T16:14:53.054Z,6.30
2022-09-15T16:16:57.704Z,5.32
2022-09-15T16:19:00.281Z,5.07
2022-09-15T16:21:02.899Z,8.07
2022-09-15T16:23:06.028Z,7.38
2022-09-15T16:25:16.552Z,6.13
2022-09-15T16:27:19.474Z,6.72
2022-09-15T16:29:26.036Z,7.20
2022-09-15T16:31:28.865Z,5.22
2022-09-15T16:33:34.719Z,6.40
2022-09-15T16:35:45.913Z,7.15
2022-09-15T16:37:48.569Z,7.03
2022-09-15T16:39:52.442Z,5.75
2022-09-15T16:41:56.483Z,7.72
2022-09-15T16:43:59.202Z,6.55
2022-09-15T16:46:02.301Z,7.60
2022-09-15T16:48:05.256Z,5.78
2022-09-15T16:50:08.447Z,9.15
2022-09-15T16:52:13.557Z,10.38
2022-09-15T16:54:17.725Z,6.68
2022-09-15T16:56:20.329Z,7.35
2022-09-15T16:58:24.655Z,6.30
2022-09-15T17:00:30.623Z,5.00
2022-09-15T17:02:33.271Z,6.53
2022-09-15T17:04:35.859Z,6.00
2022-09-15T17:06:38.590Z,6.30
2022-09-15T17:08:41.260Z,5.30
2022-09-15T17:10:44.106Z,8.48
2022-09-15T17:12:46.779Z,8.90
2022-09-15T17:14:50.684Z,7.55
2022-09-15T17:16:53.456Z,8.75
2022-09-15T17:18:56.058Z,6.53
2022-09-15T17:20:58.878Z,8.18
2022-09-15T17:23:02.698Z,5.78
2022-09-15T17:25:19.227Z,6.93
2022-09-15T17:27:21.814Z,7.22
2022-09-15T17:29:24.656Z,6.30
2022-09-15T17:31:28.771Z,7.43
2022-09-15T17:33:32.773Z,6.43
2022-09-15T17:35:37.067Z,5.55
2022-09-15T17:37:39.690Z,5.75
2022-09-15T17:39:42.483Z,9.00
2022-09-15T17:41:47.024Z,8.63
2022-09-15T17:43:49.869Z,6.05
2022-09-15T17:45:53.222Z,6.15
2022-09-15T17:47:57.362Z,6.72
2022-09-15T17:49:59.907Z,5.93
2022-09-15T17:52:02.777Z,6.22
2022-09-15T17:54:07.325Z,6.45
2022-09-15T17:56:09.919Z,6.93
2022-09-15T17:58:12.745Z,6.53
2022-09-15T18:00:16.483Z,7.97
2022-09-15T18:02:20.322Z,6.78
2022-09-15T18:04:24.311Z,7.75
2022-09-15T18:06:27.369Z,6.18
2022-09-15T18:08:30.052Z,6.40
2022-09-15T18:10:34.384Z,6.30
2022-09-15T18:12:36.956Z,7.43
2022-09-15T18:14:39.544Z,7.07
2022-09-15T18:16:43.114Z,6.82
2022-09-15T18:18:47.163Z,5.15
2022-09-15T18:20:52.966Z,6.22
2022-09-15T18:22:56.656Z,5.68
2022-09-15T18:24:59.293Z,5.88
2022-09-15T18:27:01.847Z,6.25
2022-09-15T18:29:04.593Z,8.32
2022-09-15T18:31:07.495Z,6.65
2022-09-15T18:33:15.108Z,7.13
2022-09-15T18:35:19.475Z,7.57
2022-09-15T18:37:23.396Z,7.50
2022-09-15T18:39:26.347Z,8.05
2022-09-15T18:41:28.915Z,7.00
2022-09-15T18:43:31.493Z,6.57
2022-09-15T18:45:34.111Z,6.00
2022-09-15T18:47:37.425Z,7.78
2022-09-15T18:49:40.005Z,6.88
2022-09-15T18:51:57.784Z,6.07
2022-09-15T18:54:01.770Z,6.25
2022-09-15T18:56:10.927Z,6.20
2022-09-15T18:58:13.652Z,7.47
2022-09-15T19:00:19.170Z,7.82
2022-09-15T19:02:21.840Z,7.55
2022-09-15T19:04:28.386Z,7.38
2022-09-15T19:06:33.716Z,7.55
2022-09-15T19:08:36.843Z,6.55
2022-09-15T19:10:43.747Z,6.35
2022-09-15T19:12:46.527Z,6.25
2022-09-15T19:14:49.188Z,5.72
2022-09-15T19:16:58.090Z,6.75
2022-09-15T19:19:01.176Z,6.95
2022-09-15T19:21:08.096Z,6.25
2022-09-15T19:23:10.756Z,8.20
2022-09-15T19:25:13.690Z,5.55
2022-09-15T19:27:17.653Z,6.38
2022-09-15T19:29:20.252Z,7.50
2022-09-15T19:31:23.289Z,6.35
2022-09-15T19:33:26.867Z,6.65
2022-09-15T19:35:29.584Z,6.90
2022-09-15T19:37:32.186Z,9.85
2022-09-15T19:39:34.795Z,5.65
2022-09-15T19:41:37.384Z,6.55
2022-09-15T19:43:41.739Z,7.70
2022-09-15T19:45:44.924Z,7.38
2022-09-15T19:47:47.632Z,6.55
2022-09-15T19:49:52.304Z,7.15
2022-09-15T19:51:55.996Z,6.65
2022-09-15T19:53:59.459Z,7.97
2022-09-15T19:56:02.071Z,7.68
2022-09-15T19:58:04.655Z,7.90
2022-09-15T20:00:11.563Z,8.32
2022-09-15T20:02:14.285Z,5.95
2022-09-15T20:04:17.041Z,8.60
2022-09-15T20:06:19.755Z,7.40
2022-09-15T20:08:23.134Z,11.05
2022-09-15T20:10:25.737Z,10.18
2022-09-15T20:12:28.415Z,6.57
2022-09-15T20:14:31.566Z,6.35
2022-09-15T20:16:35.700Z,6.95
2022-09-15T20:18:41.289Z,9.63
2022-09-15T20:20:43.883Z,7.97
2022-09-15T20:22:46.706Z,7.90
2022-09-15T20:24:49.546Z,8.13
2022-09-15T20:26:53.420Z,7.38
2022-09-15T20:28:56.048Z,8.57
2022-09-15T20:31:01.126Z,6.25
2022-09-15T20:33:05.274Z,8.25
2022-09-15T20:35:08.205Z,6.90
2022-09-15T20:37:10.988Z,7.53
2022-09-15T20:39:15.491Z,7.13
2022-09-15T20:41:20.048Z,8.13
2022-09-15T20:43:22.786Z,6.60
2022-09-15T20:45:25.383Z,7.15
2022-09-15T20:47:28.042Z,6.72
2022-09-15T20:49:31.985Z,8.70
2022-09-15T20:51:35.278Z,7.85
2022-09-15T20:53:38.626Z,7.15
2022-09-15T20:55:41.244Z,6.47
2022-09-15T20:57:43.858Z,6.95
2022-09-15T20:59:46.429Z,7.07
2022-09-15T21:01:48.999Z,7.95
2022-09-15T21:03:52.149Z,8.02
2022-09-15T21:06:01.444Z,8.15
2022-09-15T21:08:04.099Z,8.30
2022-09-15T21:10:08.044Z,6.65
2022-09-15T21:12:10.833Z,8.80
2022-09-15T21:14:14.238Z,8.20
2022-09-15T21:16:18.827Z,6.80
2022-09-15T21:18:21.409Z,6.57
2022-09-15T21:20:24.018Z,7.90
2022-09-15T21:22:28.018Z,7.65
2022-09-15T21:24:30.590Z,7.00
2022-09-15T21:26:35.189Z,7.70
2022-09-15T21:28:38.565Z,8.20
2022-09-15T21:30:41.368Z,8.48
2022-09-15T21:32:44.029Z,7.63
2022-09-15T21:34:47.195Z,8.45
2022-09-15T21:36:51.602Z,7.43
2022-09-15T21:38:57.208Z,9.35
2022-09-15T21:40:59.887Z,7.43
2022-09-15T21:43:03.185Z,10.40
2022-09-15T21:45:06.886Z,6.88
2022-09-15T21:47:09.435Z,8.85
2022-09-15T21:49:12.138Z,9.15
2022-09-15T21:51:19.685Z,8.60
2022-09-15T21:53:25.005Z,8.40
2022-09-15T21:55:29.937Z,8.48
2022-09-15T21:57:32.513Z,8.52
2022-09-15T21:59:35.092Z,8.73
2022-09-15T22:01:37.831Z,9.95
2022-09-15T22:03:42.392Z,9.02
2022-09-15T22:05:47.050Z,8.75
2022-09-15T22:07:49.669Z,8.95
2022-09-15T22:09:52.296Z,10.45
2022-09-15T22:11:56.687Z,8.40
2022-09-15T22:13:59.313Z,7.95
2022-09-15T22:16:03.426Z,7.88
2022-09-15T22:18:06.643Z,8.55
2022-09-15T22:20:10.001Z,7.85
2022-09-15T22:22:12.615Z,9.25
2022-09-15T22:24:15.267Z,8.98
2022-09-15T22:26:20.700Z,11.07
2022-09-15T22:28:24.746Z,9.10
2022-09-15T22:30:27.468Z,9.07
2022-09-15T22:32:30.386Z,8.73
2022-09-15T22:34:33.064Z,10.50
2022-09-15T22:36:36.186Z,8.60
2022-09-15T22:38:38.951Z,7.55
2022-09-15T22:40:41.558Z,8.90
2022-09-15T22:42:44.224Z,9.68
2022-09-15T22:44:48.161Z,10.73
2022-09-15T22:46:51.293Z,10.85
2022-09-15T22:48:53.972Z,8.95
2022-09-15T22:50:56.650Z,10.60
2022-09-15T22:52:59.245Z,10.65
2022-09-15T22:55:02.252Z,8.23
2022-09-15T22:57:05.097Z,8.57
2022-09-15T22:59:07.706Z,9.52
2022-09-15T23:01:14.087Z,9.20
2022-09-15T23:03:16.763Z,9.63
2022-09-15T23:05:19.481Z,9.05
2022-09-15T23:07:22.061Z,7.90
2022-09-15T23:09:24.685Z,9.70
2022-09-15T23:11:29.834Z,10.23
2022-09-15T23:13:33.142Z,10.32
2022-09-15T23:15:36.581Z,8.60
2022-09-15T23:17:40.635Z,8.68
2022-09-15T23:19:43.220Z,8.68
2022-09-15T23:21:46.165Z,9.07
2022-09-15T23:23:49.415Z,9.18
2022-09-15T23:25:52.089Z,10.35
2022-09-15T23:27:54.691Z,7.95
2022-09-15T23:29:57.275Z,10.73
2022-09-15T23:31:59.861Z,8.88
2022-09-15T23:34:04.068Z,9.35
2022-09-15T23:36:10.219Z,9.35
2022-09-15T23:38:12.824Z,9.50
2022-09-15T23:40:15.589Z,8.60
2022-09-15T23:42:18.980Z,6.97
2022-09-15T23:44:21.822Z,9.57
2022-09-15T23:46:24.475Z,8.18
2022-09-15T23:48:27.768Z,8.15
2022-09-15T23:50:31.798Z,8.18
2022-09-15T23:52:34.453Z,9.38
2022-09-15T23:54:37.062Z,6.75
2022-09-15T23:56:39.647Z,6.82
2022-09-15T23:58:42.228Z,9.13
